createdAt,value
2018-06-11T00:00:37.426Z,93522.98
2018-06-11T00:03:05.130Z,93526.81
2018-06-11T00:05:32.830Z,93522.25
2018-06-11T00:08:00.532Z,93522.87
2018-06-11T00:10:28.238Z,93518.56
2018-06-11T00:12:55.966Z,93518.22
2018-06-11T00:15:23.668Z,93510.19
2018-06-11T00:17:51.380Z,93512.67
2018-06-11T00:20:19.058Z,93506.44
2018-06-11T00:22:46.746Z,93504.20
2018-06-11T00:25:14.417Z,93505.13
2018-06-11T00:27:42.114Z,93500.50
2018-06-11T00:30:09.815Z,93499.52
2018-06-11T00:32:37.491Z,93500.28
2018-06-11T00:35:05.163Z,93493.97
2018-06-11T00:37:32.875Z,93486.66
2018-06-11T00:40:00.541Z,93485.08
2018-06-11T00:42:28.202Z,93480.31
2018-06-11T00:44:55.946Z,93485.50
2018-06-11T00:47:23.647Z,93489.20
2018-06-11T00:49:51.315Z,93486.42
2018-06-11T00:52:18.994Z,93495.02
2018-06-11T00:54:46.674Z,93487.46
2018-06-11T00:57:14.350Z,93488.03
2018-06-11T00:59:42.081Z,93478.94
2018-06-11T01:02:09.756Z,93481.59
2018-06-11T01:04:37.425Z,93472.05
2018-06-11T01:07:05.134Z,93471.77
2018-06-11T01:09:32.931Z,93462.78
2018-06-11T01:12:00.599Z,93469.16
2018-06-11T01:14:28.396Z,93471.31
2018-06-11T01:16:56.100Z,93460.34
2018-06-11T01:19:23.847Z,93458.78
2018-06-11T01:21:51.551Z,93468.14
2018-06-11T01:24:19.259Z,93458.96
2018-06-11T01:26:46.987Z,93458.73
2018-06-11T01:29:14.666Z,93453.03
2018-06-11T01:31:42.379Z,93451.51
2018-06-11T01:34:10.075Z,93453.31
2018-06-11T01:36:37.757Z,93452.05
2018-06-11T01:39:06.175Z,93444.08
2018-06-11T01:41:33.924Z,93441.75
2018-06-11T01:44:01.611Z,93439.11
2018-06-11T01:46:29.298Z,93434.03
2018-06-11T01:48:56.965Z,93444.02
2018-06-11T01:51:24.671Z,93439.82
2018-06-11T01:53:52.399Z,93434.84
2018-06-11T01:56:20.051Z,93430.53
2018-06-11T01:58:47.748Z,93426.21
2018-06-11T02:01:15.447Z,93428.80
2018-06-11T02:03:43.279Z,93423.50
2018-06-11T02:06:10.991Z,93418.14
2018-06-11T02:08:38.718Z,93416.05
2018-06-11T02:11:06.431Z,93415.00
2018-06-11T02:13:34.133Z,93425.22
2018-06-11T02:16:01.810Z,93418.36
2018-06-11T02:18:29.467Z,93405.58
2018-06-11T02:20:57.313Z,93413.05
2018-06-11T02:23:25.103Z,93403.99
2018-06-11T02:25:52.787Z,93408.08
2018-06-11T02:28:20.453Z,93399.64
2018-06-11T02:30:48.159Z,93399.08
2018-06-11T02:33:15.830Z,93396.36
2018-06-11T02:35:43.518Z,93395.97
2018-06-11T02:38:11.333Z,93397.30
2018-06-11T02:40:39.007Z,93398.15
2018-06-11T02:43:06.711Z,93403.34
2018-06-11T02:45:34.576Z,93400.22
2018-06-11T02:48:02.251Z,93401.89
2018-06-11T02:50:29.955Z,93403.84
2018-06-11T02:52:57.627Z,93404.09
2018-06-11T02:55:25.323Z,93403.56
2018-06-11T02:57:53.034Z,93407.48
2018-06-11T03:00:20.695Z,93405.64
2018-06-11T03:02:48.374Z,93410.13
2018-06-11T03:05:16.095Z,93416.75
2018-06-11T03:07:43.849Z,93412.49
2018-06-11T03:10:11.551Z,93414.55
2018-06-11T03:12:39.255Z,93417.16
2018-06-11T03:15:06.968Z,93415.59
2018-06-11T03:17:34.698Z,93418.20
2018-06-11T03:20:02.474Z,93415.55
2018-06-11T03:22:30.155Z,93414.50
2018-06-11T03:24:57.822Z,93418.47
2018-06-11T03:27:25.531Z,93412.36
2018-06-11T03:29:53.175Z,93409.06
2018-06-11T03:32:20.858Z,93401.69
2018-06-11T03:34:48.526Z,93403.83
2018-06-11T03:37:16.217Z,93407.53
2018-06-11T03:39:43.911Z,93402.80
2018-06-11T03:42:11.576Z,93403.62
2018-06-11T03:44:39.291Z,93398.30
2018-06-11T03:47:06.988Z,93395.38
2018-06-11T03:49:34.646Z,93391.22
2018-06-11T03:52:02.283Z,93392.41
2018-06-11T03:54:30.022Z,93385.58
2018-06-11T03:56:57.703Z,93375.55
2018-06-11T03:59:25.406Z,93371.63
2018-06-11T04:01:53.109Z,93373.77
2018-06-11T04:04:20.807Z,93369.56
2018-06-11T04:06:48.530Z,93367.48
2018-06-11T04:09:16.214Z,93367.07
2018-06-11T04:11:43.862Z,93369.62
2018-06-11T04:14:11.536Z,93371.09
2018-06-11T04:16:39.216Z,93366.64
2018-06-11T04:19:06.934Z,93367.02
2018-06-11T04:21:34.631Z,93369.83
2018-06-11T04:24:02.288Z,93370.39
2018-06-11T04:26:29.958Z,93364.38
2018-06-11T04:28:57.667Z,93380.11
2018-06-11T04:31:25.491Z,93378.11
2018-06-11T04:33:53.178Z,93374.64
2018-06-11T04:36:20.870Z,93373.73
2018-06-11T04:38:48.518Z,93376.79
2018-06-11T04:41:16.219Z,93376.33
2018-06-11T04:43:43.895Z,93372.98
2018-06-11T04:46:11.618Z,93370.98
2018-06-11T04:48:39.322Z,93370.24
2018-06-11T04:51:07.004Z,93367.45
2018-06-11T04:53:35.888Z,93374.70
2018-06-11T04:56:03.577Z,93374.02
2018-06-11T04:58:31.290Z,93367.47
2018-06-11T05:00:59.028Z,93359.82
2018-06-11T05:03:26.704Z,93364.87
2018-06-11T05:05:54.392Z,93361.64
2018-06-11T05:08:22.087Z,93360.08
2018-06-11T05:10:49.742Z,93355.31
2018-06-11T05:13:17.451Z,93355.03
2018-06-11T05:15:45.135Z,93361.22
2018-06-11T05:18:12.817Z,93352.76
2018-06-11T05:20:40.555Z,93358.11
2018-06-11T05:23:08.247Z,93359.70
2018-06-11T05:25:35.991Z,93366.61
2018-06-11T05:28:03.721Z,93371.33
2018-06-11T05:30:31.419Z,93381.11
2018-06-11T05:32:59.146Z,93375.98
2018-06-11T05:35:26.837Z,93382.31
2018-06-11T05:37:54.527Z,93383.70
2018-06-11T05:40:22.230Z,93382.50
2018-06-11T05:42:49.883Z,93389.17
2018-06-11T05:45:17.589Z,93385.14
2018-06-11T05:47:45.299Z,93394.48
2018-06-11T05:50:12.974Z,93392.50
2018-06-11T05:52:40.679Z,93395.27
2018-06-11T05:55:08.331Z,93392.98
2018-06-11T05:57:36.022Z,93398.86
2018-06-11T06:00:03.934Z,93392.74
2018-06-11T06:02:31.606Z,93389.55
2018-06-11T06:04:59.307Z,93395.44
2018-06-11T06:07:27.068Z,93396.48
2018-06-11T06:09:54.777Z,93395.16
2018-06-11T06:12:23.450Z,93396.78
2018-06-11T06:14:51.232Z,93398.11
2018-06-11T06:17:19.035Z,93394.37
2018-06-11T06:19:46.743Z,93392.49
2018-06-11T06:22:14.436Z,93396.50
2018-06-11T06:24:42.111Z,93398.91
2018-06-11T06:27:09.823Z,93408.20
2018-06-11T06:29:37.532Z,93408.48
2018-06-11T06:32:05.266Z,93401.58
2018-06-11T06:34:33.007Z,93408.78
2018-06-11T06:37:00.700Z,93409.84
2018-06-11T06:39:28.443Z,93410.92
2018-06-11T06:41:56.093Z,93402.92
2018-06-11T06:44:23.838Z,93409.58
2018-06-11T06:46:51.590Z,93413.02
2018-06-11T06:49:19.279Z,93414.11
2018-06-11T06:51:46.997Z,93414.09
2018-06-11T06:54:14.680Z,93415.66
2018-06-11T06:56:42.413Z,93413.27
2018-06-11T06:59:10.114Z,93418.02
2018-06-11T07:01:37.905Z,93417.97
2018-06-11T07:04:05.624Z,93426.98
2018-06-11T07:06:33.314Z,93424.30
2018-06-11T07:09:01.046Z,93426.72
2018-06-11T07:11:28.764Z,93425.30
2018-06-11T07:13:56.435Z,93425.33
2018-06-11T07:16:24.119Z,93419.99
2018-06-11T07:18:51.807Z,93410.55
2018-06-11T07:21:19.486Z,93420.70
2018-06-11T07:23:47.203Z,93415.56
2018-06-11T07:26:14.889Z,93405.44
2018-06-11T07:28:42.635Z,93402.53
2018-06-11T07:31:10.323Z,93399.81
2018-06-11T07:33:38.027Z,93393.34
2018-06-11T07:36:05.736Z,93391.19
2018-06-11T07:38:33.419Z,93385.31
2018-06-11T07:41:01.281Z,93373.02
2018-06-11T07:43:28.995Z,93370.64
2018-06-11T07:45:56.685Z,93374.72
2018-06-11T07:48:24.646Z,93373.06
2018-06-11T07:50:52.369Z,93374.30
2018-06-11T07:53:20.068Z,93370.69
2018-06-11T07:55:47.801Z,93371.56
2018-06-11T07:58:15.492Z,93371.14
2018-06-11T08:00:43.254Z,93373.03
2018-06-11T08:03:11.017Z,93374.62
2018-06-11T08:05:38.778Z,93376.85
2018-06-11T08:08:06.492Z,93371.97
2018-06-11T08:10:34.252Z,93373.16
2018-06-11T08:13:02.021Z,93373.72
2018-06-11T08:15:29.767Z,93375.47
2018-06-11T08:17:57.542Z,93375.20
2018-06-11T08:20:25.259Z,93371.73
2018-06-11T08:22:52.989Z,93376.84
2018-06-11T08:25:20.717Z,93374.52
2018-06-11T08:27:48.450Z,93368.64
2018-06-11T08:30:16.170Z,93376.05
2018-06-11T08:32:43.931Z,93372.82
2018-06-11T08:35:11.678Z,93382.66
2018-06-11T08:37:39.379Z,93386.02
2018-06-11T08:40:07.123Z,93391.65
2018-06-11T08:42:34.814Z,93392.06
2018-06-11T08:45:02.550Z,93396.45
2018-06-11T08:47:30.251Z,93392.46
2018-06-11T08:49:57.992Z,93387.42
2018-06-11T08:52:25.698Z,93393.81
2018-06-11T08:54:53.393Z,93388.91
2018-06-11T08:57:21.124Z,93388.61
2018-06-11T08:59:48.851Z,93391.02
2018-06-11T09:02:16.747Z,93387.20
2018-06-11T09:04:44.462Z,93384.58
2018-06-11T09:07:12.210Z,93379.38
2018-06-11T09:09:39.947Z,93368.26
2018-06-11T09:12:07.645Z,93372.39
2018-06-11T09:14:35.391Z,93371.59
2018-06-11T09:17:03.115Z,93377.46
2018-06-11T09:19:30.862Z,93375.89
2018-06-11T09:21:58.595Z,93380.81
2018-06-11T09:24:26.349Z,93388.90
2018-06-11T09:26:55.202Z,93385.70
2018-06-11T09:29:22.909Z,93379.36
2018-06-11T09:31:50.658Z,93376.14
2018-06-11T09:34:18.408Z,93380.59
2018-06-11T09:36:46.144Z,93379.50
2018-06-11T09:39:13.851Z,93383.91
2018-06-11T09:41:41.579Z,93383.30
2018-06-11T09:44:09.322Z,93386.67
2018-06-11T09:46:37.009Z,93386.52
2018-06-11T09:49:05.593Z,93393.34
2018-06-11T09:51:33.299Z,93389.56
2018-06-11T09:54:01.048Z,93385.44
2018-06-11T09:56:28.782Z,93380.82
2018-06-11T09:58:56.508Z,93382.56
2018-06-11T10:01:24.206Z,93383.68
2018-06-11T10:03:51.893Z,93381.91
2018-06-11T10:06:19.576Z,93381.99
2018-06-11T10:08:47.293Z,93380.71
2018-06-11T10:11:14.977Z,93386.31
2018-06-11T10:13:42.711Z,93388.38
2018-06-11T10:16:10.459Z,93385.23
2018-06-11T10:18:38.170Z,93386.67
2018-06-11T10:21:06.179Z,93382.02
2018-06-11T10:23:33.927Z,93384.38
2018-06-11T10:26:01.681Z,93374.06
2018-06-11T10:28:29.395Z,93367.40
2018-06-11T10:30:57.914Z,93366.33
2018-06-11T10:33:25.643Z,93370.47
2018-06-11T10:35:53.359Z,93366.66
2018-06-11T10:38:21.057Z,93368.98
2018-06-11T10:40:48.805Z,93367.17
2018-06-11T10:43:16.552Z,93365.19
2018-06-11T10:45:44.312Z,93367.67
2018-06-11T10:48:12.073Z,93362.13
2018-06-11T10:50:39.827Z,93359.75
2018-06-11T10:53:07.539Z,93357.77
2018-06-11T10:55:35.303Z,93350.20
2018-06-11T10:58:03.062Z,93350.69
2018-06-11T11:00:30.820Z,93350.19
2018-06-11T11:02:58.545Z,93349.73
2018-06-11T11:05:26.299Z,93342.63
2018-06-11T11:07:54.013Z,93342.70
2018-06-11T11:10:21.750Z,93339.71
2018-06-11T11:12:49.457Z,93334.19
2018-06-11T11:15:17.147Z,93327.00
2018-06-11T11:17:44.863Z,93315.84
2018-06-11T11:20:12.565Z,93319.03
2018-06-11T11:22:40.291Z,93308.16
2018-06-11T11:25:08.041Z,93309.95
2018-06-11T11:27:35.747Z,93307.02
2018-06-11T11:30:03.950Z,93313.98
2018-06-11T11:32:31.696Z,93307.03
2018-06-11T11:34:59.448Z,93302.51
2018-06-11T11:37:27.203Z,93297.48
2018-06-11T11:39:55.023Z,93296.52
2018-06-11T11:42:22.788Z,93290.97
2018-06-11T11:44:50.556Z,93288.14
2018-06-11T11:47:18.371Z,93285.77
2018-06-11T11:49:46.147Z,93289.45
2018-06-11T11:52:13.886Z,93281.03
2018-06-11T11:54:41.970Z,93286.71
2018-06-11T11:57:09.703Z,93284.72
2018-06-11T11:59:37.447Z,93284.92
2018-06-11T12:02:05.290Z,93288.86
2018-06-11T12:04:33.108Z,93287.27
2018-06-11T12:07:00.812Z,93284.11
2018-06-11T12:09:28.611Z,93280.28
2018-06-11T12:11:56.375Z,93282.81
2018-06-11T12:14:24.111Z,93286.66
2018-06-11T12:16:51.819Z,93281.37
2018-06-11T12:19:19.571Z,93283.03
2018-06-11T12:21:47.296Z,93270.77
2018-06-11T12:24:15.051Z,93254.27
2018-06-11T12:26:42.910Z,93235.72
2018-06-11T12:29:10.688Z,93231.97
2018-06-11T12:31:38.437Z,93230.91
2018-06-11T12:34:06.191Z,93236.30
2018-06-11T12:36:34.019Z,93232.31
2018-06-11T12:39:01.783Z,93223.77
2018-06-11T12:41:29.590Z,93220.82
2018-06-11T12:43:57.338Z,93224.48
2018-06-11T12:46:25.071Z,93215.89
2018-06-11T12:48:52.796Z,93211.56
2018-06-11T12:51:20.533Z,93214.09
2018-06-11T12:53:48.287Z,93218.67
2018-06-11T12:56:16.084Z,93216.14
2018-06-11T12:58:43.780Z,93213.45
2018-06-11T13:01:11.531Z,93225.05
2018-06-11T13:03:39.228Z,93229.34
2018-06-11T13:06:07.044Z,93225.63
2018-06-11T13:08:34.785Z,93221.98
2018-06-11T13:11:02.531Z,93215.70
2018-06-11T13:13:30.313Z,93211.34
2018-06-11T13:15:58.091Z,93205.12
2018-06-11T13:18:25.802Z,93198.34
2018-06-11T13:20:53.572Z,93194.08
2018-06-11T13:23:21.313Z,93197.88
2018-06-11T13:25:49.168Z,93209.61
2018-06-11T13:28:16.911Z,93211.11
2018-06-11T13:30:44.656Z,93211.58
2018-06-11T13:33:12.411Z,93210.08
2018-06-11T13:35:40.142Z,93208.88
2018-06-11T13:38:07.842Z,93212.40
2018-06-11T13:40:35.591Z,93205.27
2018-06-11T13:43:03.386Z,93212.72
2018-06-11T13:45:31.185Z,93205.88
2018-06-11T13:47:58.963Z,93205.77
2018-06-11T13:50:26.704Z,93201.00
2018-06-11T13:52:54.483Z,93195.67
2018-06-11T13:55:22.243Z,93199.36
2018-06-11T13:57:50.047Z,93199.36
2018-06-11T14:00:17.818Z,93196.70
2018-06-11T14:02:45.639Z,93194.66
2018-06-11T14:05:13.395Z,93186.59
2018-06-11T14:07:41.217Z,93189.49
2018-06-11T14:10:08.972Z,93196.45
2018-06-11T14:12:36.731Z,93201.72
2018-06-11T14:15:04.556Z,93201.94
2018-06-11T14:17:32.266Z,93193.86
2018-06-11T14:19:59.983Z,93192.88
2018-06-11T14:22:27.698Z,93193.67
2018-06-11T14:24:56.316Z,93190.95
2018-06-11T14:27:24.039Z,93193.15
2018-06-11T14:29:51.776Z,93189.94
2018-06-11T14:32:19.526Z,93184.31
2018-06-11T14:34:47.263Z,93179.20
2018-06-11T14:37:15.002Z,93182.78
2018-06-11T14:39:42.769Z,93187.20
2018-06-11T14:42:10.800Z,93182.47
2018-06-11T14:44:38.525Z,93176.02
2018-06-11T14:47:06.224Z,93173.84
2018-06-11T14:49:33.971Z,93171.80
2018-06-11T14:52:01.701Z,93165.48
2018-06-11T14:54:29.418Z,93157.91
2018-06-11T14:56:57.164Z,93155.70
2018-06-11T14:59:24.913Z,93145.42
2018-06-11T15:01:52.652Z,93138.64
2018-06-11T15:04:20.422Z,93132.76
2018-06-11T15:06:48.171Z,93144.33
2018-06-11T15:09:15.880Z,93143.53
2018-06-11T15:11:43.595Z,93146.03
2018-06-11T15:14:11.357Z,93156.16
2018-06-11T15:16:39.070Z,93161.67
2018-06-11T15:19:06.842Z,93165.58
2018-06-11T15:21:34.650Z,93168.66
2018-06-11T15:24:02.364Z,93171.02
2018-06-11T15:26:30.065Z,93172.36
2018-06-11T15:28:57.849Z,93171.30
2018-06-11T15:31:25.533Z,93164.95
2018-06-11T15:33:53.286Z,93167.66
2018-06-11T15:36:21.006Z,93176.11
2018-06-11T15:38:48.747Z,93167.78
2018-06-11T15:41:16.440Z,93162.47
2018-06-11T15:43:44.222Z,93158.27
2018-06-11T15:46:11.962Z,93163.74
2018-06-11T15:48:39.646Z,93148.98
2018-06-11T15:51:07.385Z,93148.34
2018-06-11T15:53:35.118Z,93148.13
2018-06-11T15:56:02.859Z,93143.09
2018-06-11T15:58:30.598Z,93146.27
2018-06-11T16:00:58.307Z,93151.78
2018-06-11T16:03:26.027Z,93164.63
2018-06-11T16:05:53.809Z,93191.59
2018-06-11T16:08:21.543Z,93182.85
2018-06-11T16:10:49.320Z,93158.64
2018-06-11T16:13:17.047Z,93170.52
2018-06-11T16:15:44.756Z,93198.36
2018-06-11T16:18:12.479Z,93208.16
2018-06-11T16:20:40.212Z,93226.22
2018-06-11T16:23:07.934Z,93227.42
2018-06-11T16:25:35.670Z,93217.41
2018-06-11T16:28:03.454Z,93222.75
2018-06-11T16:30:31.134Z,93205.84
2018-06-11T16:32:58.898Z,93218.69
2018-06-11T16:35:26.635Z,93211.58
2018-06-11T16:37:54.357Z,93216.84
2018-06-11T16:40:22.729Z,93217.85
2018-06-11T16:42:50.414Z,93233.92
2018-06-11T16:45:18.164Z,93240.52
2018-06-11T16:47:46.823Z,93232.86
2018-06-11T16:50:15.479Z,93242.95
2018-06-11T16:52:43.480Z,93250.15
2018-06-11T16:55:11.234Z,93250.18
2018-06-11T16:57:38.957Z,93246.20
2018-06-11T17:00:07.019Z,93247.56
2018-06-11T17:02:34.759Z,93253.73
2018-06-11T17:05:05.716Z,93246.23
2018-06-11T17:07:34.119Z,93253.70
2018-06-11T17:10:01.832Z,93259.79
2018-06-11T17:12:30.675Z,93265.60
2018-06-11T17:14:58.417Z,93275.75
2018-06-11T17:17:26.095Z,93275.39
2018-06-11T17:19:53.800Z,93291.98
2018-06-11T17:22:21.535Z,93286.91
2018-06-11T17:24:49.534Z,93285.36
2018-06-11T17:27:17.271Z,93282.12
2018-06-11T17:29:45.016Z,93279.42
2018-06-11T17:32:12.719Z,93281.59
2018-06-11T17:34:40.471Z,93284.83
2018-06-11T17:37:08.188Z,93279.54
2018-06-11T17:39:35.904Z,93281.65
2018-06-11T17:42:03.658Z,93288.56
2018-06-11T17:44:31.421Z,93293.39
2018-06-11T17:46:59.161Z,93295.84
2018-06-11T17:49:26.922Z,93298.75
2018-06-11T17:51:54.682Z,93307.32
2018-06-11T17:54:22.523Z,93302.03
2018-06-11T17:56:50.176Z,93302.61
2018-06-11T17:59:17.952Z,93308.49
2018-06-11T18:01:45.791Z,93309.56
2018-06-11T18:04:13.556Z,93307.44
2018-06-11T18:06:41.281Z,93309.02
2018-06-11T18:09:09.208Z,93321.30
2018-06-11T18:11:36.989Z,93310.36
2018-06-11T18:14:04.716Z,93308.25
2018-06-11T18:16:32.433Z,93300.51
2018-06-11T18:19:00.177Z,93297.58
2018-06-11T18:21:27.919Z,93288.75
2018-06-11T18:23:55.781Z,93295.70
2018-06-11T18:26:23.591Z,93298.38
2018-06-11T18:28:51.305Z,93312.26
2018-06-11T18:31:19.108Z,93315.42
2018-06-11T18:33:46.827Z,93308.77
2018-06-11T18:36:14.587Z,93311.98
2018-06-11T18:38:42.419Z,93314.13
2018-06-11T18:41:10.145Z,93312.52
2018-06-11T18:43:37.894Z,93306.66
2018-06-11T18:46:05.695Z,93303.19
2018-06-11T18:48:33.438Z,93303.47
2018-06-11T18:51:01.183Z,93296.00
2018-06-11T18:53:28.946Z,93294.69
2018-06-11T18:55:56.679Z,93296.78
2018-06-11T18:58:24.405Z,93298.69
2018-06-11T19:00:52.156Z,93295.75
2018-06-11T19:03:19.903Z,93294.91
2018-06-11T19:05:47.668Z,93298.63
2018-06-11T19:08:15.436Z,93298.89
2018-06-11T19:10:43.180Z,93301.82
2018-06-11T19:13:10.927Z,93303.95
2018-06-11T19:15:38.738Z,93305.56
2018-06-11T19:18:06.587Z,93310.09
2018-06-11T19:20:34.423Z,93307.44
2018-06-11T19:23:02.151Z,93302.89
2018-06-11T19:25:29.883Z,93299.67
2018-06-11T19:27:57.620Z,93306.81
2018-06-11T19:30:25.352Z,93311.09
2018-06-11T19:32:53.163Z,93318.00
2018-06-11T19:35:21.141Z,93320.66
2018-06-11T19:37:48.853Z,93314.77
2018-06-11T19:40:16.579Z,93319.30
2018-06-11T19:42:44.347Z,93321.11
2018-06-11T19:45:12.217Z,93321.84
2018-06-11T19:47:39.999Z,93317.85
2018-06-11T19:50:07.844Z,93320.98
2018-06-11T19:52:35.547Z,93320.98
2018-06-11T19:55:03.318Z,93322.31
2018-06-11T19:57:31.006Z,93323.33
2018-06-11T19:59:58.817Z,93325.10
2018-06-11T20:02:26.479Z,93322.17
2018-06-11T20:04:54.221Z,93318.43
2018-06-11T20:07:21.919Z,93310.42
2018-06-11T20:09:49.661Z,93303.48
2018-06-11T20:12:17.364Z,93308.49
2018-06-11T20:14:45.135Z,93308.41
2018-06-11T20:17:12.904Z,93307.16
2018-06-11T20:19:40.625Z,93309.30
2018-06-11T20:22:08.334Z,93305.97
2018-06-11T20:24:36.058Z,93300.70
2018-06-11T20:27:03.808Z,93302.02
2018-06-11T20:29:31.584Z,93314.46
2018-06-11T20:31:59.342Z,93317.92
2018-06-11T20:34:27.133Z,93326.97
2018-06-11T20:36:54.932Z,93325.24
2018-06-11T20:39:22.673Z,93328.11
2018-06-11T20:41:50.388Z,93323.71
2018-06-11T20:44:18.166Z,93310.44
2018-06-11T20:46:45.857Z,93307.51
2018-06-11T20:49:13.598Z,93295.68
2018-06-11T20:51:41.409Z,93295.12
2018-06-11T20:54:09.142Z,93290.90
2018-06-11T20:56:36.930Z,93281.52
2018-06-11T20:59:04.652Z,93282.59
2018-06-11T21:01:32.356Z,93276.62
2018-06-11T21:04:00.166Z,93274.08
2018-06-11T21:06:27.877Z,93269.98
2018-06-11T21:08:55.543Z,93268.76
2018-06-11T21:11:23.250Z,93270.28
2018-06-11T21:13:50.958Z,93264.09
2018-06-11T21:16:18.654Z,93255.91
2018-06-11T21:18:46.347Z,93248.51
2018-06-11T21:21:14.099Z,93249.72
2018-06-11T21:23:41.775Z,93241.11
2018-06-11T21:26:09.507Z,93244.20
2018-06-11T21:28:37.227Z,93253.48
2018-06-11T21:31:05.027Z,93260.59
2018-06-11T21:33:32.782Z,93271.48
2018-06-11T21:36:00.463Z,93273.38
2018-06-11T21:38:28.205Z,93266.08
2018-06-11T21:40:55.972Z,93274.31
2018-06-11T21:43:23.686Z,93261.95
2018-06-11T21:45:51.422Z,93270.37
2018-06-11T21:48:19.102Z,93280.30
2018-06-11T21:50:46.837Z,93277.42
2018-06-11T21:53:14.499Z,93280.48
2018-06-11T21:55:42.199Z,93281.58
2018-06-11T21:58:09.868Z,93281.03
2018-06-11T22:00:37.634Z,93285.83
2018-06-11T22:03:05.398Z,93284.31
2018-06-11T22:05:33.107Z,93284.16
2018-06-11T22:08:01.145Z,93291.76
2018-06-11T22:10:28.945Z,93293.04
2018-06-11T22:12:56.630Z,93292.26
2018-06-11T22:15:24.329Z,93294.92
2018-06-11T22:17:52.040Z,93300.75
2018-06-11T22:20:19.712Z,93297.84
2018-06-11T22:22:47.424Z,93293.98
2018-06-11T22:25:15.163Z,93288.63
2018-06-11T22:27:42.885Z,93286.55
2018-06-11T22:30:10.599Z,93294.98
2018-06-11T22:32:38.343Z,93296.45
2018-06-11T22:35:06.070Z,93294.64
2018-06-11T22:37:33.765Z,93291.91
2018-06-11T22:40:01.480Z,93284.94
2018-06-11T22:42:29.177Z,93286.91
2018-06-11T22:44:56.853Z,93289.84
2018-06-11T22:47:24.539Z,93282.67
2018-06-11T22:49:52.228Z,93279.30
2018-06-11T22:52:19.899Z,93275.00
2018-06-11T22:54:47.588Z,93276.48
2018-06-11T22:57:15.308Z,93281.15
2018-06-11T22:59:42.961Z,93282.28
2018-06-11T23:02:10.712Z,93290.12
2018-06-11T23:04:38.417Z,93278.75
2018-06-11T23:07:06.230Z,93281.08
2018-06-11T23:09:33.900Z,93274.78
2018-06-11T23:12:01.623Z,93275.05
2018-06-11T23:14:29.351Z,93274.62
2018-06-11T23:16:57.051Z,93274.48
2018-06-11T23:19:24.751Z,93280.34
2018-06-11T23:21:52.452Z,93277.45
2018-06-11T23:24:20.210Z,93274.54
2018-06-11T23:26:47.940Z,93270.91
2018-06-11T23:29:15.620Z,93272.52
2018-06-11T23:31:43.326Z,93266.66
2018-06-11T23:34:11.029Z,93257.43
2018-06-11T23:36:38.940Z,93256.00
2018-06-11T23:39:06.842Z,93248.55
2018-06-11T23:41:34.773Z,93247.30
2018-06-11T23:44:02.475Z,93253.69
2018-06-11T23:46:30.150Z,93249.88
2018-06-11T23:48:57.862Z,93249.09
2018-06-11T23:51:25.563Z,93254.95
2018-06-11T23:53:53.305Z,93249.94
2018-06-11T23:56:22.097Z,93255.58
2018-06-11T23:58:49.812Z,93255.87
